sensor_id;sensor_type;location;lat;lon;timestamp;P1;durP1;ratioP1;P2;durP2;ratioP2
37895;SDS011;23733;53.254;10.430;2024-01-16T00:01:21;5.20;;;3.27;;
37895;SDS011;23733;53.254;10.430;2024-01-16T00:03:48;5.97;;;3.40;;
37895;SDS011;23733;53.254;10.430;2024-01-16T00:06:14;5.83;;;3.77;;
37895;SDS011;23733;53.254;10.430;2024-01-16T00:08:40;5.97;;;3.97;;
37895;SDS011;23733;53.254;10.430;2024-01-16T00:11:07;5.70;;;3.97;;
37895;SDS011;23733;53.254;10.430;2024-01-16T00:13:35;8.03;;;4.00;;
37895;SDS011;23733;53.254;10.430;2024-01-16T00:16:01;5.40;;;4.03;;
37895;SDS011;23733;53.254;10.430;2024-01-16T00:18:29;5.20;;;3.90;;
37895;SDS011;23733;53.254;10.430;2024-01-16T00:20:55;5.70;;;3.70;;
37895;SDS011;23733;53.254;10.430;2024-01-16T00:23:21;6.77;;;3.83;;
37895;SDS011;23733;53.254;10.430;2024-01-16T00:25:48;5.07;;;3.50;;
37895;SDS011;23733;53.254;10.430;2024-01-16T00:28:14;4.70;;;3.70;;
37895;SDS011;23733;53.254;10.430;2024-01-16T00:30:40;6.87;;;3.43;;
37895;SDS011;23733;53.254;10.430;2024-01-16T00:33:06;9.13;;;3.73;;
37895;SDS011;23733;53.254;10.430;2024-01-16T00:35:33;4.60;;;3.57;;
37895;SDS011;23733;53.254;10.430;2024-01-16T00:37:59;5.40;;;3.40;;
37895;SDS011;23733;53.254;10.430;2024-01-16T00:40:25;6.77;;;3.70;;
37895;SDS011;23733;53.254;10.430;2024-01-16T00:42:52;6.73;;;4.20;;
37895;SDS011;23733;53.254;10.430;2024-01-16T00:45:18;5.47;;;4.00;;
37895;SDS011;23733;53.254;10.430;2024-01-16T00:47:44;5.83;;;3.63;;
37895;SDS011;23733;53.254;10.430;2024-01-16T00:50:10;4.93;;;3.50;;
37895;SDS011;23733;53.254;10.430;2024-01-16T00:52:37;5.90;;;3.63;;
37895;SDS011;23733;53.254;10.430;2024-01-16T00:55:04;5.33;;;3.40;;
37895;SDS011;23733;53.254;10.430;2024-01-16T00:57:30;4.93;;;3.40;;
37895;SDS011;23733;53.254;10.430;2024-01-16T00:59:56;6.70;;;3.77;;
37895;SDS011;23733;53.254;10.430;2024-01-16T01:02:23;5.87;;;3.43;;
37895;SDS011;23733;53.254;10.430;2024-01-16T01:04:49;6.47;;;3.73;;
37895;SDS011;23733;53.254;10.430;2024-01-16T01:07:17;6.20;;;3.93;;
37895;SDS011;23733;53.254;10.430;2024-01-16T01:09:43;5.33;;;3.67;;
37895;SDS011;23733;53.254;10.430;2024-01-16T01:12:09;6.83;;;3.63;;
37895;SDS011;23733;53.254;10.430;2024-01-16T01:14:36;6.43;;;4.10;;
37895;SDS011;23733;53.254;10.430;2024-01-16T01:17:02;6.00;;;4.00;;
37895;SDS011;23733;53.254;10.430;2024-01-16T01:19:28;7.33;;;4.00;;
37895;SDS011;23733;53.254;10.430;2024-01-16T01:21:55;10.37;;;4.43;;
37895;SDS011;23733;53.254;10.430;2024-01-16T01:24:21;6.20;;;3.97;;
37895;SDS011;23733;53.254;10.430;2024-01-16T01:26:48;6.07;;;4.20;;
37895;SDS011;23733;53.254;10.430;2024-01-16T01:29:14;6.07;;;3.87;;
37895;SDS011;23733;53.254;10.430;2024-01-16T01:31:41;5.57;;;4.00;;
37895;SDS011;23733;53.254;10.430;2024-01-16T01:34:11;6.93;;;4.60;;
37895;SDS011;23733;53.254;10.430;2024-01-16T01:36:37;7.63;;;4.73;;
37895;SDS011;23733;53.254;10.430;2024-01-16T01:39:05;9.67;;;5.40;;
37895;SDS011;23733;53.254;10.430;2024-01-16T01:41:31;6.07;;;4.73;;
37895;SDS011;23733;53.254;10.430;2024-01-16T01:43:58;9.80;;;5.30;;
37895;SDS011;23733;53.254;10.430;2024-01-16T01:46:24;8.10;;;5.17;;
37895;SDS011;23733;53.254;10.430;2024-01-16T01:48:50;6.90;;;5.27;;
37895;SDS011;23733;53.254;10.430;2024-01-16T01:51:17;10.00;;;5.30;;
37895;SDS011;23733;53.254;10.430;2024-01-16T01:53:44;6.90;;;4.63;;
37895;SDS011;23733;53.254;10.430;2024-01-16T01:56:14;7.27;;;4.87;;
37895;SDS011;23733;53.254;10.430;2024-01-16T01:58:43;8.27;;;4.77;;
37895;SDS011;23733;53.254;10.430;2024-01-16T02:01:09;6.00;;;4.50;;
37895;SDS011;23733;53.254;10.430;2024-01-16T02:03:43;6.63;;;4.50;;
37895;SDS011;23733;53.254;10.430;2024-01-16T02:06:10;8.93;;;4.50;;
37895;SDS011;23733;53.254;10.430;2024-01-16T02:08:37;8.23;;;5.17;;
37895;SDS011;23733;53.254;10.430;2024-01-16T02:11:05;6.40;;;4.30;;
37895;SDS011;23733;53.254;10.430;2024-01-16T02:13:31;8.13;;;4.70;;
37895;SDS011;23733;53.254;10.430;2024-01-16T02:15:58;7.63;;;4.43;;
37895;SDS011;23733;53.254;10.430;2024-01-16T02:18:24;7.13;;;3.83;;
37895;SDS011;23733;53.254;10.430;2024-01-16T02:20:51;7.00;;;4.03;;
37895;SDS011;23733;53.254;10.430;2024-01-16T02:23:28;7.43;;;4.40;;
37895;SDS011;23733;53.254;10.430;2024-01-16T02:25:55;8.93;;;4.40;;
37895;SDS011;23733;53.254;10.430;2024-01-16T02:28:22;8.33;;;4.73;;
37895;SDS011;23733;53.254;10.430;2024-01-16T02:30:51;7.50;;;4.20;;
37895;SDS011;23733;53.254;10.430;2024-01-16T02:33:17;6.77;;;4.63;;
37895;SDS011;23733;53.254;10.430;2024-01-16T02:35:43;7.23;;;4.23;;
37895;SDS011;23733;53.254;10.430;2024-01-16T02:38:10;6.93;;;4.87;;
37895;SDS011;23733;53.254;10.430;2024-01-16T02:40:36;7.93;;;4.80;;
37895;SDS011;23733;53.254;10.430;2024-01-16T02:43:02;8.40;;;4.80;;
37895;SDS011;23733;53.254;10.430;2024-01-16T02:45:28;6.97;;;4.90;;
37895;SDS011;23733;53.254;10.430;2024-01-16T02:47:55;5.77;;;4.37;;
37895;SDS011;23733;53.254;10.430;2024-01-16T02:50:21;7.33;;;5.00;;
37895;SDS011;23733;53.254;10.430;2024-01-16T02:52:48;6.73;;;4.80;;
37895;SDS011;23733;53.254;10.430;2024-01-16T02:55:14;6.93;;;4.67;;
37895;SDS011;23733;53.254;10.430;2024-01-16T02:57:41;7.37;;;4.77;;
37895;SDS011;23733;53.254;10.430;2024-01-16T03:00:08;8.83;;;4.80;;
37895;SDS011;23733;53.254;10.430;2024-01-16T03:02:35;9.40;;;4.87;;
37895;SDS011;23733;53.254;10.430;2024-01-16T03:05:04;6.80;;;4.53;;
37895;SDS011;23733;53.254;10.430;2024-01-16T03:07:30;5.80;;;4.50;;
37895;SDS011;23733;53.254;10.430;2024-01-16T03:09:58;7.57;;;4.63;;
37895;SDS011;23733;53.254;10.430;2024-01-16T03:12:24;6.87;;;4.90;;
37895;SDS011;23733;53.254;10.430;2024-01-16T03:14:52;7.63;;;4.87;;
37895;SDS011;23733;53.254;10.430;2024-01-16T03:17:18;6.93;;;5.00;;
37895;SDS011;23733;53.254;10.430;2024-01-16T03:19:45;10.47;;;5.10;;
37895;SDS011;23733;53.254;10.430;2024-01-16T03:22:11;7.30;;;4.50;;
37895;SDS011;23733;53.254;10.430;2024-01-16T03:24:38;8.60;;;5.17;;
37895;SDS011;23733;53.254;10.430;2024-01-16T03:27:05;7.80;;;4.70;;
37895;SDS011;23733;53.254;10.430;2024-01-16T03:29:32;7.07;;;5.20;;
37895;SDS011;23733;53.254;10.430;2024-01-16T03:31:59;8.63;;;5.03;;
37895;SDS011;23733;53.254;10.430;2024-01-16T03:34:26;9.97;;;5.77;;
37895;SDS011;23733;53.254;10.430;2024-01-16T03:36:53;8.33;;;4.93;;
37895;SDS011;23733;53.254;10.430;2024-01-16T03:39:19;9.20;;;5.70;;
37895;SDS011;23733;53.254;10.430;2024-01-16T03:41:46;9.70;;;5.80;;
37895;SDS011;23733;53.254;10.430;2024-01-16T03:44:12;8.07;;;5.67;;
37895;SDS011;23733;53.254;10.430;2024-01-16T03:46:38;9.17;;;6.10;;
37895;SDS011;23733;53.254;10.430;2024-01-16T03:49:04;8.47;;;5.93;;
37895;SDS011;23733;53.254;10.430;2024-01-16T03:51:31;8.37;;;5.87;;
37895;SDS011;23733;53.254;10.430;2024-01-16T03:53:57;9.87;;;6.10;;
37895;SDS011;23733;53.254;10.430;2024-01-16T03:56:23;10.10;;;6.43;;
37895;SDS011;23733;53.254;10.430;2024-01-16T03:58:50;9.23;;;6.37;;
37895;SDS011;23733;53.254;10.430;2024-01-16T04:01:16;8.47;;;6.20;;
37895;SDS011;23733;53.254;10.430;2024-01-16T04:03:42;7.73;;;5.57;;
37895;SDS011;23733;53.254;10.430;2024-01-16T04:06:15;7.93;;;6.23;;
37895;SDS011;23733;53.254;10.430;2024-01-16T04:08:42;9.13;;;6.33;;
37895;SDS011;23733;53.254;10.430;2024-01-16T04:11:12;9.30;;;6.40;;
37895;SDS011;23733;53.254;10.430;2024-01-16T04:13:38;8.17;;;6.33;;
37895;SDS011;23733;53.254;10.430;2024-01-16T04:16:06;10.30;;;6.50;;
37895;SDS011;23733;53.254;10.430;2024-01-16T04:18:36;9.47;;;6.30;;
37895;SDS011;23733;53.254;10.430;2024-01-16T04:21:05;8.77;;;6.37;;
37895;SDS011;23733;53.254;10.430;2024-01-16T04:23:32;9.93;;;6.23;;
37895;SDS011;23733;53.254;10.430;2024-01-16T04:25:58;8.20;;;6.07;;
37895;SDS011;23733;53.254;10.430;2024-01-16T04:28:25;7.60;;;5.77;;
37895;SDS011;23733;53.254;10.430;2024-01-16T04:30:51;9.70;;;5.80;;
37895;SDS011;23733;53.254;10.430;2024-01-16T04:33:17;6.83;;;5.07;;
37895;SDS011;23733;53.254;10.430;2024-01-16T04:35:44;8.70;;;5.50;;
37895;SDS011;23733;53.254;10.430;2024-01-16T04:38:10;8.13;;;5.47;;
37895;SDS011;23733;53.254;10.430;2024-01-16T04:40:36;10.07;;;5.03;;
37895;SDS011;23733;53.254;10.430;2024-01-16T04:43:03;5.90;;;4.40;;
37895;SDS011;23733;53.254;10.430;2024-01-16T04:45:29;6.80;;;4.83;;
37895;SDS011;23733;53.254;10.430;2024-01-16T04:47:55;6.50;;;4.37;;
37895;SDS011;23733;53.254;10.430;2024-01-16T04:50:22;6.67;;;4.37;;
37895;SDS011;23733;53.254;10.430;2024-01-16T04:52:48;6.47;;;4.53;;
37895;SDS011;23733;53.254;10.430;2024-01-16T04:55:15;6.57;;;4.23;;
37895;SDS011;23733;53.254;10.430;2024-01-16T04:57:42;5.87;;;3.80;;
37895;SDS011;23733;53.254;10.430;2024-01-16T05:00:09;6.37;;;4.07;;
37895;SDS011;23733;53.254;10.430;2024-01-16T05:02:35;4.43;;;3.50;;
37895;SDS011;23733;53.254;10.430;2024-01-16T05:05:02;4.90;;;3.33;;
37895;SDS011;23733;53.254;10.430;2024-01-16T05:07:28;6.83;;;3.77;;
37895;SDS011;23733;53.254;10.430;2024-01-16T05:09:55;5.67;;;3.63;;
37895;SDS011;23733;53.254;10.430;2024-01-16T05:12:21;6.50;;;3.70;;
37895;SDS011;23733;53.254;10.430;2024-01-16T05:14:48;4.47;;;2.80;;
37895;SDS011;23733;53.254;10.430;2024-01-16T05:17:14;4.73;;;2.93;;
37895;SDS011;23733;53.254;10.430;2024-01-16T05:19:41;5.33;;;2.50;;
37895;SDS011;23733;53.254;10.430;2024-01-16T05:22:09;4.73;;;2.50;;
37895;SDS011;23733;53.254;10.430;2024-01-16T05:24:37;3.80;;;2.20;;
37895;SDS011;23733;53.254;10.430;2024-01-16T05:27:04;2.60;;;2.23;;
37895;SDS011;23733;53.254;10.430;2024-01-16T05:29:30;6.33;;;2.10;;
37895;SDS011;23733;53.254;10.430;2024-01-16T05:31:57;4.07;;;1.80;;
37895;SDS011;23733;53.254;10.430;2024-01-16T05:34:24;3.80;;;1.83;;
37895;SDS011;23733;53.254;10.430;2024-01-16T05:36:51;3.27;;;1.80;;
37895;SDS011;23733;53.254;10.430;2024-01-16T05:39:17;3.30;;;1.40;;
37895;SDS011;23733;53.254;10.430;2024-01-16T05:41:45;2.37;;;1.30;;
37895;SDS011;23733;53.254;10.430;2024-01-16T05:44:12;1.70;;;1.10;;
37895;SDS011;23733;53.254;10.430;2024-01-16T05:46:38;2.27;;;1.10;;
37895;SDS011;23733;53.254;10.430;2024-01-16T05:49:04;1.30;;;1.00;;
37895;SDS011;23733;53.254;10.430;2024-01-16T05:51:30;2.50;;;1.33;;
37895;SDS011;23733;53.254;10.430;2024-01-16T05:53:57;2.60;;;1.13;;
37895;SDS011;23733;53.254;10.430;2024-01-16T05:56:24;2.93;;;1.20;;
37895;SDS011;23733;53.254;10.430;2024-01-16T05:58:51;3.03;;;1.30;;
37895;SDS011;23733;53.254;10.430;2024-01-16T06:01:17;3.27;;;1.97;;
37895;SDS011;23733;53.254;10.430;2024-01-16T06:03:45;4.87;;;2.20;;
37895;SDS011;23733;53.254;10.430;2024-01-16T06:06:14;6.17;;;3.00;;
37895;SDS011;23733;53.254;10.430;2024-01-16T06:08:40;4.13;;;2.77;;
37895;SDS011;23733;53.254;10.430;2024-01-16T06:11:07;4.27;;;3.00;;
37895;SDS011;23733;53.254;10.430;2024-01-16T06:13:33;6.13;;;3.33;;
37895;SDS011;23733;53.254;10.430;2024-01-16T06:15:59;5.87;;;3.47;;
37895;SDS011;23733;53.254;10.430;2024-01-16T06:18:26;6.73;;;4.17;;
37895;SDS011;23733;53.254;10.430;2024-01-16T06:20:52;8.30;;;3.67;;
37895;SDS011;23733;53.254;10.430;2024-01-16T06:23:20;7.87;;;4.63;;
37895;SDS011;23733;53.254;10.430;2024-01-16T06:25:46;8.30;;;4.50;;
37895;SDS011;23733;53.254;10.430;2024-01-16T06:28:12;9.17;;;4.70;;
37895;SDS011;23733;53.254;10.430;2024-01-16T06:30:38;9.60;;;5.20;;
37895;SDS011;23733;53.254;10.430;2024-01-16T06:33:05;10.23;;;5.53;;
37895;SDS011;23733;53.254;10.430;2024-01-16T06:35:31;10.87;;;5.13;;
37895;SDS011;23733;53.254;10.430;2024-01-16T06:37:58;11.13;;;5.93;;
37895;SDS011;23733;53.254;10.430;2024-01-16T06:40:24;10.63;;;5.73;;
37895;SDS011;23733;53.254;10.430;2024-01-16T06:42:50;13.30;;;5.93;;
37895;SDS011;23733;53.254;10.430;2024-01-16T06:45:17;10.83;;;5.90;;
37895;SDS011;23733;53.254;10.430;2024-01-16T06:47:44;10.53;;;5.17;;
37895;SDS011;23733;53.254;10.430;2024-01-16T06:50:10;9.70;;;5.73;;
37895;SDS011;23733;53.254;10.430;2024-01-16T06:52:37;9.70;;;5.23;;
37895;SDS011;23733;53.254;10.430;2024-01-16T06:55:03;8.83;;;5.13;;
37895;SDS011;23733;53.254;10.430;2024-01-16T06:57:29;12.37;;;5.70;;
37895;SDS011;23733;53.254;10.430;2024-01-16T06:59:56;11.00;;;5.40;;
37895;SDS011;23733;53.254;10.430;2024-01-16T07:02:22;9.93;;;4.73;;
37895;SDS011;23733;53.254;10.430;2024-01-16T07:04:48;18.30;;;5.50;;
37895;SDS011;23733;53.254;10.430;2024-01-16T07:07:15;13.77;;;4.83;;
37895;SDS011;23733;53.254;10.430;2024-01-16T07:09:41;9.20;;;4.60;;
37895;SDS011;23733;53.254;10.430;2024-01-16T07:12:07;11.37;;;5.27;;
37895;SDS011;23733;53.254;10.430;2024-01-16T07:14:34;9.13;;;5.50;;
37895;SDS011;23733;53.254;10.430;2024-01-16T07:17:01;6.70;;;4.60;;
37895;SDS011;23733;53.254;10.430;2024-01-16T07:19:28;8.57;;;4.83;;
37895;SDS011;23733;53.254;10.430;2024-01-16T07:21:54;12.13;;;4.97;;
37895;SDS011;23733;53.254;10.430;2024-01-16T07:24:20;11.63;;;4.73;;
37895;SDS011;23733;53.254;10.430;2024-01-16T07:26:47;7.93;;;4.67;;
37895;SDS011;23733;53.254;10.430;2024-01-16T07:29:13;8.50;;;3.73;;
37895;SDS011;23733;53.254;10.430;2024-01-16T07:31:40;6.60;;;4.00;;
37895;SDS011;23733;53.254;10.430;2024-01-16T07:34:06;13.90;;;4.83;;
37895;SDS011;23733;53.254;10.430;2024-01-16T07:36:33;7.80;;;4.30;;
37895;SDS011;23733;53.254;10.430;2024-01-16T07:39:00;9.30;;;3.87;;
37895;SDS011;23733;53.254;10.430;2024-01-16T07:41:26;11.23;;;4.37;;
37895;SDS011;23733;53.254;10.430;2024-01-16T07:43:53;6.17;;;3.63;;
37895;SDS011;23733;53.254;10.430;2024-01-16T07:46:19;9.50;;;4.00;;
37895;SDS011;23733;53.254;10.430;2024-01-16T07:48:45;9.47;;;3.83;;
37895;SDS011;23733;53.254;10.430;2024-01-16T07:51:12;11.23;;;3.73;;
37895;SDS011;23733;53.254;10.430;2024-01-16T07:53:38;7.13;;;3.27;;
37895;SDS011;23733;53.254;10.430;2024-01-16T07:56:04;8.57;;;3.20;;
37895;SDS011;23733;53.254;10.430;2024-01-16T07:58:31;7.87;;;3.10;;
37895;SDS011;23733;53.254;10.430;2024-01-16T08:00:57;8.20;;;3.47;;
37895;SDS011;23733;53.254;10.430;2024-01-16T08:03:23;5.67;;;2.93;;
37895;SDS011;23733;53.254;10.430;2024-01-16T08:05:51;4.90;;;2.83;;
37895;SDS011;23733;53.254;10.430;2024-01-16T08:08:17;8.90;;;2.77;;
37895;SDS011;23733;53.254;10.430;2024-01-16T08:10:43;5.10;;;3.17;;
37895;SDS011;23733;53.254;10.430;2024-01-16T08:13:10;6.67;;;2.97;;
37895;SDS011;23733;53.254;10.430;2024-01-16T08:15:36;9.53;;;2.73;;
37895;SDS011;23733;53.254;10.430;2024-01-16T08:18:02;8.83;;;3.03;;
37895;SDS011;23733;53.254;10.430;2024-01-16T08:20:29;6.70;;;2.43;;
37895;SDS011;23733;53.254;10.430;2024-01-16T08:22:55;8.90;;;2.70;;
37895;SDS011;23733;53.254;10.430;2024-01-16T08:25:21;9.60;;;2.60;;
37895;SDS011;23733;53.254;10.430;2024-01-16T08:27:48;5.47;;;2.33;;
37895;SDS011;23733;53.254;10.430;2024-01-16T08:30:14;2.70;;;1.87;;
37895;SDS011;23733;53.254;10.430;2024-01-16T08:32:40;5.77;;;2.07;;
37895;SDS011;23733;53.254;10.430;2024-01-16T08:35:07;10.33;;;2.37;;
37895;SDS011;23733;53.254;10.430;2024-01-16T08:37:34;4.40;;;2.00;;
37895;SDS011;23733;53.254;10.430;2024-01-16T08:40:00;5.30;;;2.10;;
37895;SDS011;23733;53.254;10.430;2024-01-16T08:42:26;9.10;;;2.03;;
37895;SDS011;23733;53.254;10.430;2024-01-16T08:44:53;8.10;;;2.67;;
37895;SDS011;23733;53.254;10.430;2024-01-16T08:47:19;5.00;;;2.13;;
37895;SDS011;23733;53.254;10.430;2024-01-16T08:49:46;7.27;;;2.20;;
37895;SDS011;23733;53.254;10.430;2024-01-16T08:52:13;7.20;;;2.60;;
37895;SDS011;23733;53.254;10.430;2024-01-16T08:54:41;5.43;;;2.20;;
37895;SDS011;23733;53.254;10.430;2024-01-16T08:57:07;6.10;;;2.13;;
37895;SDS011;23733;53.254;10.430;2024-01-16T08:59:35;5.03;;;2.03;;
37895;SDS011;23733;53.254;10.430;2024-01-16T09:02:02;9.33;;;2.33;;
37895;SDS011;23733;53.254;10.430;2024-01-16T09:04:29;7.73;;;2.30;;
37895;SDS011;23733;53.254;10.430;2024-01-16T09:06:55;6.73;;;2.40;;
37895;SDS011;23733;53.254;10.430;2024-01-16T09:09:22;6.67;;;2.30;;
37895;SDS011;23733;53.254;10.430;2024-01-16T09:11:49;6.70;;;2.20;;
37895;SDS011;23733;53.254;10.430;2024-01-16T09:14:15;10.53;;;2.43;;
37895;SDS011;23733;53.254;10.430;2024-01-16T09:16:43;7.40;;;2.60;;
37895;SDS011;23733;53.254;10.430;2024-01-16T09:19:09;8.37;;;2.43;;
37895;SDS011;23733;53.254;10.430;2024-01-16T09:21:36;8.30;;;2.70;;
37895;SDS011;23733;53.254;10.430;2024-01-16T09:24:02;7.03;;;2.33;;
37895;SDS011;23733;53.254;10.430;2024-01-16T09:26:28;8.13;;;2.70;;
37895;SDS011;23733;53.254;10.430;2024-01-16T09:28:56;8.07;;;2.73;;
37895;SDS011;23733;53.254;10.430;2024-01-16T09:31:23;10.60;;;3.10;;
37895;SDS011;23733;53.254;10.430;2024-01-16T09:33:50;11.17;;;2.70;;
37895;SDS011;23733;53.254;10.430;2024-01-16T09:36:16;6.63;;;2.43;;
37895;SDS011;23733;53.254;10.430;2024-01-16T09:38:42;6.50;;;2.63;;
37895;SDS011;23733;53.254;10.430;2024-01-16T09:41:09;11.03;;;3.00;;
37895;SDS011;23733;53.254;10.430;2024-01-16T09:43:36;9.13;;;3.40;;
37895;SDS011;23733;53.254;10.430;2024-01-16T09:46:04;8.27;;;3.00;;
37895;SDS011;23733;53.254;10.430;2024-01-16T09:48:30;9.37;;;3.50;;
37895;SDS011;23733;53.254;10.430;2024-01-16T09:50:57;11.20;;;3.10;;
37895;SDS011;23733;53.254;10.430;2024-01-16T09:53:23;7.83;;;3.20;;
37895;SDS011;23733;53.254;10.430;2024-01-16T09:55:50;5.90;;;3.10;;
37895;SDS011;23733;53.254;10.430;2024-01-16T09:58:17;7.63;;;3.03;;
37895;SDS011;23733;53.254;10.430;2024-01-16T10:00:45;9.60;;;3.00;;
37895;SDS011;23733;53.254;10.430;2024-01-16T10:03:13;10.67;;;3.13;;
37895;SDS011;23733;53.254;10.430;2024-01-16T10:05:43;7.80;;;2.70;;
37895;SDS011;23733;53.254;10.430;2024-01-16T10:08:11;11.37;;;3.00;;
37895;SDS011;23733;53.254;10.430;2024-01-16T10:10:37;8.47;;;2.77;;
37895;SDS011;23733;53.254;10.430;2024-01-16T10:13:05;10.30;;;2.70;;
37895;SDS011;23733;53.254;10.430;2024-01-16T10:15:31;8.00;;;2.67;;
37895;SDS011;23733;53.254;10.430;2024-01-16T10:17:58;8.60;;;2.70;;
37895;SDS011;23733;53.254;10.430;2024-01-16T10:20:31;9.93;;;3.23;;
37895;SDS011;23733;53.254;10.430;2024-01-16T10:22:58;15.47;;;3.10;;
37895;SDS011;23733;53.254;10.430;2024-01-16T10:25:25;12.13;;;2.70;;
37895;SDS011;23733;53.254;10.430;2024-01-16T10:28:02;7.53;;;2.93;;
37895;SDS011;23733;53.254;10.430;2024-01-16T10:30:29;8.90;;;3.27;;
37895;SDS011;23733;53.254;10.430;2024-01-16T10:32:55;8.00;;;3.23;;
37895;SDS011;23733;53.254;10.430;2024-01-16T10:35:22;6.37;;;2.60;;
37895;SDS011;23733;53.254;10.430;2024-01-16T10:37:50;5.97;;;2.60;;
37895;SDS011;23733;53.254;10.430;2024-01-16T10:40:19;4.80;;;2.60;;
37895;SDS011;23733;53.254;10.430;2024-01-16T10:42:46;9.43;;;3.03;;
37895;SDS011;23733;53.254;10.430;2024-01-16T10:45:17;10.43;;;2.67;;
37895;SDS011;23733;53.254;10.430;2024-01-16T10:47:47;6.20;;;3.03;;
37895;SDS011;23733;53.254;10.430;2024-01-16T10:50:14;5.50;;;2.70;;
37895;SDS011;23733;53.254;10.430;2024-01-16T10:52:47;6.93;;;2.47;;
37895;SDS011;23733;53.254;10.430;2024-01-16T10:55:19;8.53;;;2.70;;
37895;SDS011;23733;53.254;10.430;2024-01-16T10:57:46;9.43;;;2.80;;
37895;SDS011;23733;53.254;10.430;2024-01-16T11:00:14;5.80;;;2.53;;
37895;SDS011;23733;53.254;10.430;2024-01-16T11:05:23;6.97;;;2.70;;
37895;SDS011;23733;53.254;10.430;2024-01-16T11:07:50;14.83;;;3.33;;
37895;SDS011;23733;53.254;10.430;2024-01-16T11:10:20;9.43;;;3.10;;
37895;SDS011;23733;53.254;10.430;2024-01-16T11:12:50;5.07;;;2.40;;
37895;SDS011;23733;53.254;10.430;2024-01-16T11:15:17;5.07;;;2.47;;
37895;SDS011;23733;53.254;10.430;2024-01-16T11:17:44;7.10;;;2.53;;
37895;SDS011;23733;53.254;10.430;2024-01-16T11:20:11;12.17;;;3.13;;
37895;SDS011;23733;53.254;10.430;2024-01-16T11:22:41;7.97;;;2.83;;
37895;SDS011;23733;53.254;10.430;2024-01-16T11:27:38;7.20;;;3.30;;
37895;SDS011;23733;53.254;10.430;2024-01-16T11:30:05;5.97;;;3.03;;
37895;SDS011;23733;53.254;10.430;2024-01-16T11:32:36;7.70;;;3.00;;
37895;SDS011;23733;53.254;10.430;2024-01-16T11:35:06;9.00;;;3.20;;
37895;SDS011;23733;53.254;10.430;2024-01-16T11:37:33;8.97;;;2.97;;
37895;SDS011;23733;53.254;10.430;2024-01-16T11:42:49;7.60;;;3.20;;
37895;SDS011;23733;53.254;10.430;2024-01-16T11:45:47;10.60;;;3.90;;
37895;SDS011;23733;53.254;10.430;2024-01-16T11:48:10;8.20;;;3.70;;
37895;SDS011;23733;53.254;10.430;2024-01-16T11:50:36;7.53;;;4.23;;
37895;SDS011;23733;53.254;10.430;2024-01-16T11:53:03;10.40;;;4.10;;
37895;SDS011;23733;53.254;10.430;2024-01-16T11:55:31;10.93;;;4.07;;
37895;SDS011;23733;53.254;10.430;2024-01-16T11:58:10;8.43;;;3.53;;
37895;SDS011;23733;53.254;10.430;2024-01-16T12:00:42;12.00;;;4.23;;
37895;SDS011;23733;53.254;10.430;2024-01-16T12:03:11;10.60;;;4.00;;
37895;SDS011;23733;53.254;10.430;2024-01-16T12:05:41;7.90;;;4.10;;
37895;SDS011;23733;53.254;10.430;2024-01-16T12:08:09;10.33;;;4.50;;
37895;SDS011;23733;53.254;10.430;2024-01-16T12:10:45;8.03;;;4.20;;
37895;SDS011;23733;53.254;10.430;2024-01-16T12:13:14;9.37;;;4.07;;
37895;SDS011;23733;53.254;10.430;2024-01-16T12:15:41;7.30;;;4.17;;
37895;SDS011;23733;53.254;10.430;2024-01-16T12:18:08;6.17;;;3.57;;
37895;SDS011;23733;53.254;10.430;2024-01-16T12:20:35;11.63;;;4.50;;
37895;SDS011;23733;53.254;10.430;2024-01-16T12:23:02;9.63;;;4.63;;
37895;SDS011;23733;53.254;10.430;2024-01-16T12:25:29;9.73;;;4.23;;
37895;SDS011;23733;53.254;10.430;2024-01-16T12:28:00;9.07;;;4.90;;
37895;SDS011;23733;53.254;10.430;2024-01-16T12:30:26;10.97;;;4.67;;
37895;SDS011;23733;53.254;10.430;2024-01-16T12:35:33;15.97;;;5.30;;
37895;SDS011;23733;53.254;10.430;2024-01-16T12:38:00;9.37;;;4.93;;
37895;SDS011;23733;53.254;10.430;2024-01-16T12:40:27;7.23;;;4.03;;
37895;SDS011;23733;53.254;10.430;2024-01-16T12:42:53;12.37;;;4.63;;
37895;SDS011;23733;53.254;10.430;2024-01-16T12:45:20;8.50;;;4.60;;
37895;SDS011;23733;53.254;10.430;2024-01-16T12:47:50;10.63;;;5.43;;
37895;SDS011;23733;53.254;10.430;2024-01-16T12:50:21;10.60;;;4.30;;
37895;SDS011;23733;53.254;10.430;2024-01-16T12:53:01;11.30;;;4.73;;
37895;SDS011;23733;53.254;10.430;2024-01-16T12:55:30;10.33;;;4.77;;
37895;SDS011;23733;53.254;10.430;2024-01-16T13:00:38;12.70;;;5.07;;
37895;SDS011;23733;53.254;10.430;2024-01-16T13:03:07;12.70;;;4.83;;
37895;SDS011;23733;53.254;10.430;2024-01-16T13:05:34;12.20;;;5.23;;
37895;SDS011;23733;53.254;10.430;2024-01-16T13:08:04;8.97;;;5.20;;
37895;SDS011;23733;53.254;10.430;2024-01-16T13:10:30;11.37;;;4.83;;
37895;SDS011;23733;53.254;10.430;2024-01-16T13:13:13;9.73;;;5.47;;
37895;SDS011;23733;53.254;10.430;2024-01-16T13:15:40;11.43;;;4.60;;
37895;SDS011;23733;53.254;10.430;2024-01-16T13:18:06;11.83;;;4.90;;
37895;SDS011;23733;53.254;10.430;2024-01-16T13:20:33;8.63;;;4.73;;
37895;SDS011;23733;53.254;10.430;2024-01-16T13:23:00;10.53;;;4.77;;
37895;SDS011;23733;53.254;10.430;2024-01-16T13:25:26;8.50;;;4.37;;
37895;SDS011;23733;53.254;10.430;2024-01-16T13:27:56;10.93;;;4.70;;
37895;SDS011;23733;53.254;10.430;2024-01-16T13:30:23;12.07;;;4.07;;
37895;SDS011;23733;53.254;10.430;2024-01-16T13:32:52;6.30;;;3.87;;
37895;SDS011;23733;53.254;10.430;2024-01-16T13:35:18;10.37;;;3.83;;
37895;SDS011;23733;53.254;10.430;2024-01-16T13:37:44;10.43;;;3.83;;
37895;SDS011;23733;53.254;10.430;2024-01-16T13:40:11;7.60;;;3.87;;
37895;SDS011;23733;53.254;10.430;2024-01-16T13:42:40;10.47;;;4.30;;
37895;SDS011;23733;53.254;10.430;2024-01-16T13:45:07;8.97;;;4.10;;
37895;SDS011;23733;53.254;10.430;2024-01-16T13:47:34;9.03;;;4.20;;
37895;SDS011;23733;53.254;10.430;2024-01-16T13:50:04;11.13;;;5.00;;
37895;SDS011;23733;53.254;10.430;2024-01-16T13:52:31;8.80;;;4.40;;
37895;SDS011;23733;53.254;10.430;2024-01-16T13:54:57;8.73;;;4.47;;
37895;SDS011;23733;53.254;10.430;2024-01-16T13:57:25;12.10;;;4.60;;
37895;SDS011;23733;53.254;10.430;2024-01-16T13:59:52;7.83;;;3.97;;
37895;SDS011;23733;53.254;10.430;2024-01-16T14:02:18;6.20;;;3.40;;
37895;SDS011;23733;53.254;10.430;2024-01-16T14:04:45;7.67;;;3.80;;
37895;SDS011;23733;53.254;10.430;2024-01-16T14:07:11;8.47;;;4.23;;
37895;SDS011;23733;53.254;10.430;2024-01-16T14:09:37;9.03;;;4.33;;
37895;SDS011;23733;53.254;10.430;2024-01-16T14:12:05;10.40;;;3.90;;
37895;SDS011;23733;53.254;10.430;2024-01-16T14:14:33;13.90;;;3.47;;
37895;SDS011;23733;53.254;10.430;2024-01-16T14:17:00;13.20;;;4.53;;
37895;SDS011;23733;53.254;10.430;2024-01-16T14:19:27;11.33;;;3.83;;
37895;SDS011;23733;53.254;10.430;2024-01-16T14:21:55;9.97;;;3.90;;
37895;SDS011;23733;53.254;10.430;2024-01-16T14:24:21;12.63;;;3.63;;
37895;SDS011;23733;53.254;10.430;2024-01-16T14:26:47;7.93;;;4.03;;
37895;SDS011;23733;53.254;10.430;2024-01-16T14:29:15;8.27;;;4.00;;
37895;SDS011;23733;53.254;10.430;2024-01-16T14:31:41;10.97;;;4.20;;
37895;SDS011;23733;53.254;10.430;2024-01-16T14:34:14;8.20;;;3.80;;
37895;SDS011;23733;53.254;10.430;2024-01-16T14:36:40;9.60;;;4.30;;
37895;SDS011;23733;53.254;10.430;2024-01-16T14:39:07;8.27;;;4.20;;
37895;SDS011;23733;53.254;10.430;2024-01-16T14:41:39;10.70;;;4.03;;
37895;SDS011;23733;53.254;10.430;2024-01-16T14:44:08;9.40;;;4.40;;